Time;durP1;ratioP1;P1;durP2;ratioP2;P2;SDS_P1;SDS_P2;PMS_P1;PMS_P2;Temp;Humidity;BMP_temperature;BMP_pressure;BME280_temperature;BME280_humidity;BME280_pressure;Samples;Min_cycle;Max_cycle;Signal;HPM_P1;HPM_P2
2023/04/15 00:00:32;;;;;;;12.27;4.60;;;;;;;8.03;66.55;100735.88;4917310;29;20037;-80
2023/04/15 00:02:58;;;;;;;9.27;3.92;;;;;;;8.00;65.78;100735.91;4917085;29;20060;-80
2023/04/15 00:05:23;;;;;;;12.45;4.10;;;;;;;7.97;66.05;100737.69;4902892;29;20056;-80
2023/04/15 00:07:49;;;;;;;10.48;4.22;;;;;;;7.95;66.08;100744.75;4902634;29;20128;-80
2023/04/15 00:10:14;;;;;;;13.30;4.25;;;;;;;7.92;66.56;100736.88;4917122;29;20093;-80
2023/04/15 00:12:40;;;;;;;21.75;4.97;;;;;;;7.90;66.09;100740.44;4916905;29;20045;-80
2023/04/15 00:15:08;;;;;;;12.07;4.70;;;;;;;7.87;67.20;100736.06;4901905;29;20025;-80
2023/04/15 00:17:33;;;;;;;11.52;3.97;;;;;;;7.82;66.85;100737.88;4902370;29;20506;-80
2023/04/15 00:19:59;;;;;;;12.82;4.60;;;;;;;7.79;66.95;100737.94;4901583;29;20103;-80
2023/04/15 00:22:26;;;;;;;12.52;4.13;;;;;;;7.72;67.44;100734.50;4905453;29;20056;-80
2023/04/15 00:24:52;;;;;;;13.05;4.10;;;;;;;7.71;66.61;100735.38;4906500;29;20040;-80
2023/04/15 00:27:18;;;;;;;8.75;3.75;;;;;;;7.68;67.38;100734.53;4899190;29;20114;-79
2023/04/15 00:29:44;;;;;;;15.40;4.80;;;;;;;7.69;67.20;100739.81;4899642;29;20142;-80
2023/04/15 00:32:09;;;;;;;9.73;4.55;;;;;;;7.69;67.63;100736.28;4899245;29;20402;-80
2023/04/15 00:34:35;;;;;;;7.25;3.45;;;;;;;7.68;66.53;100735.41;4882554;29;20067;-80
2023/04/15 00:37:02;;;;;;;8.85;4.03;;;;;;;7.67;66.37;100738.09;4899203;29;20136;-80
2023/04/15 00:39:27;;;;;;;13.80;4.55;;;;;;;7.64;67.84;100736.34;4882079;29;20068;-80
2023/04/15 00:41:53;;;;;;;8.55;3.97;;;;;;;7.63;66.40;100739.88;4895299;29;20045;-80
2023/04/15 00:44:19;;;;;;;12.23;4.18;;;;;;;7.61;67.32;100740.78;4897721;29;20032;-80
2023/04/15 00:46:45;;;;;;;6.72;3.67;;;;;;;7.58;67.82;100735.53;4899028;29;20041;-80
2023/04/15 00:49:11;;;;;;;7.85;3.67;;;;;;;7.58;66.95;100739.03;4882379;29;20033;-80
2023/04/15 00:51:37;;;;;;;10.50;4.45;;;;;;;7.56;67.19;100735.53;4881966;29;20396;-80
2023/04/15 00:54:04;;;;;;;12.07;4.47;;;;;;;7.54;67.01;100747.88;4899090;29;20033;-80
2023/04/15 00:56:30;;;;;;;15.27;4.40;;;;;;;7.50;67.38;100744.41;4900276;29;20384;-80
2023/04/15 00:58:58;;;;;;;9.15;4.20;;;;;;;7.48;67.59;100742.69;4898814;29;20383;-80
2023/04/15 01:01:25;;;;;;;10.80;3.85;;;;;;;7.46;66.92;100741.81;4891034;29;20080;-74
2023/04/15 01:03:50;;;;;;;10.02;4.13;;;;;;;7.45;67.30;100745.34;4900613;29;20054;-74
2023/04/15 01:06:17;;;;;;;17.58;4.72;;;;;;;7.43;67.55;100744.50;4917368;29;20047;-74
2023/04/15 01:08:46;;;;;;;9.52;4.50;;;;;;;7.41;67.70;100747.13;4884646;29;20060;-74
2023/04/15 01:11:12;;;;;;;9.50;4.25;;;;;;;7.38;68.01;100739.25;4917352;29;20546;-74
2023/04/15 01:13:39;;;;;;;9.30;4.70;;;;;;;7.37;68.40;100737.53;4917672;29;20032;-74
2023/04/15 01:16:05;;;;;;;12.05;4.90;;;;;;;7.36;68.01;100738.41;4917198;29;20043;-74
2023/04/15 01:18:30;;;;;;;9.98;4.70;;;;;;;7.32;68.01;100734.94;4884869;29;20391;-74
2023/04/15 01:21:01;;;;;;;11.68;4.65;;;;;;;7.31;68.56;100734.94;4917176;29;20062;-74
2023/04/15 01:23:26;;;;;;;10.32;4.45;;;;;;;7.28;68.30;100735.84;4900388;29;20107;-74
2023/04/15 01:25:53;;;;;;;9.90;4.40;;;;;;;7.22;68.27;100730.66;4899948;29;20646;-74
2023/04/15 01:28:19;;;;;;;10.48;5.07;;;;;;;7.22;68.95;100732.38;4900333;29;20376;-74
2023/04/15 01:30:44;;;;;;;8.27;4.82;;;;;;;7.20;70.06;100734.19;4917201;29;20039;-74
2023/04/15 01:33:11;;;;;;;10.75;5.00;;;;;;;7.17;69.58;100742.09;4928638;29;20040;-74
2023/04/15 01:35:37;;;;;;;9.40;4.72;;;;;;;7.14;70.09;100729.84;4916871;28;20468;-74
2023/04/15 01:38:07;;;;;;;10.88;5.10;;;;;;;7.13;69.64;100727.22;4913976;29;20047;-74
2023/04/15 01:40:34;;;;;;;13.82;4.78;;;;;;;7.09;69.88;100735.13;4903459;29;20127;-74
2023/04/15 01:43:02;;;;;;;11.27;4.82;;;;;;;7.07;69.73;100738.69;4911977;29;20393;-74
2023/04/15 01:45:28;;;;;;;9.63;5.07;;;;;;;7.05;70.26;100737.84;4896172;29;20492;-75
2023/04/15 01:47:54;;;;;;;10.38;4.75;;;;;;;7.00;70.03;100732.63;4897401;29;20342;-74
2023/04/15 01:50:20;;;;;;;10.57;5.25;;;;;;;6.99;69.98;100740.50;4897285;29;20087;-74
2023/04/15 01:52:47;;;;;;;10.73;4.97;;;;;;;6.95;70.67;100736.16;4911604;29;20052;-74
2023/04/15 01:55:13;;;;;;;12.65;5.30;;;;;;;6.90;70.59;100738.84;4897923;29;20048;-74
2023/04/15 01:57:39;;;;;;;7.85;5.00;;;;;;;6.89;71.09;100731.81;4896879;29;20020;-74
2023/04/15 02:00:06;;;;;;;12.07;5.20;;;;;;;6.85;71.13;100738.00;4896341;29;20556;-74
2023/04/15 02:02:38;;;;;;;14.13;5.32;;;;;;;6.81;70.75;100731.88;4897662;29;20577;-74
2023/04/15 02:05:04;;;;;;;9.65;4.78;;;;;;;6.81;70.42;100737.16;4912143;29;20135;-74
2023/04/15 02:07:31;;;;;;;10.38;5.45;;;;;;;6.79;71.08;100741.56;4897100;29;20037;-74
2023/04/15 02:09:56;;;;;;;10.75;5.50;;;;;;;6.75;71.50;100733.69;4912103;29;20067;-74
2023/04/15 02:12:22;;;;;;;8.90;5.07;;;;;;;6.74;71.22;100738.09;4897494;29;20021;-74
2023/04/15 02:14:48;;;;;;;9.07;5.22;;;;;;;6.68;71.47;100735.50;4919793;29;20062;-74
2023/04/15 02:17:14;;;;;;;12.38;5.53;;;;;;;6.68;71.40;100743.41;4896219;29;20449;-80
2023/04/15 02:19:42;;;;;;;11.05;5.13;;;;;;;6.64;71.47;100744.31;4915320;29;20048;-80
2023/04/15 02:22:08;;;;;;;8.98;4.85;;;;;;;6.63;72.53;100746.06;4916386;29;20031;-79
2023/04/15 02:24:34;;;;;;;11.43;4.80;;;;;;;6.60;72.54;100745.19;4899364;29;20135;-80
2023/04/15 02:27:00;;;;;;;6.93;4.72;;;;;;;6.59;72.54;100751.34;4930982;29;20122;-80
2023/04/15 02:29:26;;;;;;;10.48;5.50;;;;;;;6.56;72.74;100752.25;4916008;29;20032;-79
2023/04/15 02:31:51;;;;;;;13.02;5.47;;;;;;;6.55;72.76;100750.53;4930740;28;20140;-80
2023/04/15 02:34:17;;;;;;;14.02;5.50;;;;;;;6.55;72.96;100749.63;4915496;29;20048;-80
2023/04/15 02:36:44;;;;;;;10.32;5.28;;;;;;;6.52;73.57;100752.28;4930393;29;20099;-80
2023/04/15 02:39:11;;;;;;;10.73;5.07;;;;;;;6.52;73.35;100757.53;4930139;29;20052;-80
2023/04/15 02:41:37;;;;;;;9.13;5.90;;;;;;;6.50;73.30;100762.81;4879771;29;20041;-80
2023/04/15 02:44:03;;;;;;;8.65;4.88;;;;;;;6.47;73.41;100766.31;4911252;29;20463;-79
2023/04/15 02:46:29;;;;;;;8.85;4.68;;;;;;;6.44;73.27;100760.22;4880232;29;20095;-80
2023/04/15 02:48:55;;;;;;;8.20;5.03;;;;;;;6.38;73.97;100769.03;4877162;29;20132;-80
2023/04/15 02:51:22;;;;;;;6.72;5.25;;;;;;;6.34;74.16;100767.28;4912509;29;20385;-73
2023/04/15 02:53:49;;;;;;;13.00;5.35;;;;;;;6.28;73.36;100769.97;4894972;29;20037;-73
2023/04/15 02:56:16;;;;;;;12.95;5.45;;;;;;;6.28;73.26;100766.44;4895827;29;20389;-73
2023/04/15 02:58:43;;;;;;;11.98;5.53;;;;;;;6.26;74.32;100779.63;4897127;29;20325;-73
2023/04/15 03:01:09;;;;;;;9.40;5.32;;;;;;;6.23;74.68;100777.88;4897030;29;20093;-73
2023/04/15 03:03:35;;;;;;;10.00;5.55;;;;;;;6.21;75.00;100773.50;4896942;29;20543;-73
2023/04/15 03:06:00;;;;;;;9.55;5.35;;;;;;;6.21;74.90;100774.38;4895588;29;20037;-73
2023/04/15 03:08:27;;;;;;;16.15;5.90;;;;;;;6.16;74.33;100770.91;4895396;29;20119;-73
2023/04/15 03:10:59;;;;;;;11.63;5.80;;;;;;;6.15;74.64;100777.03;4895387;29;20075;-74
2023/04/15 03:13:26;;;;;;;8.77;5.45;;;;;;;6.14;74.85;100780.53;4898374;29;20032;-73
2023/04/15 03:15:52;;;;;;;15.35;6.25;;;;;;;6.09;74.02;100776.19;4911231;29;20071;-73
2023/04/15 03:18:20;;;;;;;11.73;6.22;;;;;;;6.06;75.10;100782.34;4880200;29;20437;-73
2023/04/15 03:20:46;;;;;;;8.13;4.90;;;;;;;6.04;74.40;100784.09;4911713;29;20177;-73
2023/04/15 03:23:12;;;;;;;8.52;6.00;;;;;;;5.98;74.85;100787.63;4911133;29;20044;-73
2023/04/15 03:25:37;;;;;;;9.88;5.72;;;;;;;5.97;75.49;100785.00;4911129;29;20033;-74
2023/04/15 03:28:05;;;;;;;9.68;5.68;;;;;;;5.93;75.90;100784.09;4880036;29;20140;-73
2023/04/15 03:30:31;;;;;;;9.95;6.10;;;;;;;5.89;75.72;100792.03;4910977;29;20024;-73
2023/04/15 03:32:57;;;;;;;14.23;5.68;;;;;;;5.85;75.63;100785.00;4896648;29;20059;-73
2023/04/15 03:35:23;;;;;;;11.73;6.07;;;;;;;5.81;76.61;100790.28;4879769;29;20108;-73
2023/04/15 03:37:48;;;;;;;10.07;6.30;;;;;;;5.77;76.66;100800.81;4896493;29;20032;-72
2023/04/15 03:40:14;;;;;;;10.40;6.40;;;;;;;5.75;76.61;100792.91;4896511;29;20088;-73
2023/04/15 03:42:40;;;;;;;8.43;5.45;;;;;;;5.71;76.43;100796.44;4896552;29;20056;-73
2023/04/15 03:45:06;;;;;;;10.00;5.35;;;;;;;5.69;77.06;100802.59;4896466;29;20064;-73
2023/04/15 03:47:32;;;;;;;10.13;5.88;;;;;;;5.65;77.27;100799.06;4896458;29;20036;-73
2023/04/15 03:49:57;;;;;;;14.07;5.80;;;;;;;5.62;77.16;100800.84;4896588;29;20025;-73
2023/04/15 03:52:23;;;;;;;10.07;6.10;;;;;;;5.58;77.69;100811.34;4905466;29;20385;-73
2023/04/15 03:54:48;;;;;;;13.77;6.00;;;;;;;5.57;77.36;100821.88;4879634;29;20502;-73
2023/04/15 03:57:14;;;;;;;11.43;6.38;;;;;;;5.55;78.45;100815.75;4899252;29;20098;-73
2023/04/15 03:59:39;;;;;;;8.60;6.05;;;;;;;5.54;77.83;100820.13;4899998;29;20131;-73
2023/04/15 04:02:05;;;;;;;11.00;5.88;;;;;;;5.52;78.54;100819.25;4899855;29;20411;-73
2023/04/15 04:04:31;;;;;;;9.73;5.78;;;;;;;5.50;78.06;100828.88;4899665;29;20052;-72
2023/04/15 04:06:56;;;;;;;9.65;6.05;;;;;;;5.47;77.97;100834.16;4899700;29;20709;-73
2023/04/15 04:09:22;;;;;;;12.60;6.30;;;;;;;5.45;78.57;100835.03;4899694;29;20025;-73
2023/04/15 04:11:47;;;;;;;14.38;6.60;;;;;;;5.44;78.54;100846.38;4899680;29;20044;-73
2023/04/15 04:14:13;;;;;;;8.75;6.45;;;;;;;5.41;79.04;100841.16;4898310;29;20396;-73
2023/04/15 04:16:38;;;;;;;9.88;6.32;;;;;;;5.37;79.17;100849.03;4899681;29;20107;-73
2023/04/15 04:19:03;;;;;;;9.75;6.13;;;;;;;5.34;79.65;100854.28;4899819;29;20057;-73
2023/04/15 04:21:29;;;;;;;9.85;6.15;;;;;;;5.31;79.92;100856.03;4899700;29;20072;-73
2023/04/15 04:23:55;;;;;;;13.32;6.65;;;;;;;5.28;79.79;100856.91;4882997;29;20032;-73
2023/04/15 04:26:21;;;;;;;13.35;6.45;;;;;;;5.26;79.42;100865.66;4900076;29;20109;-73
2023/04/15 04:28:47;;;;;;;12.07;6.68;;;;;;;5.24;79.97;100867.41;4899362;29;20028;-73
2023/04/15 04:31:12;;;;;;;10.88;6.95;;;;;;;5.22;80.31;100866.50;4899244;29;20546;-73
2023/04/15 04:33:38;;;;;;;12.02;7.63;;;;;;;5.20;80.78;100877.03;4899502;29;20040;-73
2023/04/15 04:36:04;;;;;;;11.40;6.90;;;;;;;5.22;80.23;100884.91;4899133;29;20457;-73
2023/04/15 04:38:29;;;;;;;12.05;7.85;;;;;;;5.21;80.97;100884.03;4882434;29;20489;-73
2023/04/15 04:40:55;;;;;;;10.25;6.88;;;;;;;5.19;81.56;100885.78;4899177;29;20037;-73
2023/04/15 04:43:21;;;;;;;9.63;6.70;;;;;;;5.19;81.25;100883.16;4899195;29;20036;-73
2023/04/15 04:45:46;;;;;;;9.32;6.43;;;;;;;5.17;81.59;100887.53;4899239;29;20048;-73
2023/04/15 04:48:12;;;;;;;10.02;6.65;;;;;;;5.16;81.23;100901.53;4899155;29;20064;-73
2023/04/15 04:50:37;;;;;;;10.65;6.63;;;;;;;5.15;81.99;100907.66;4899262;29;20061;-73
2023/04/15 04:53:03;;;;;;;11.95;7.50;;;;;;;5.15;82.32;100905.03;4881356;29;20039;-73
2023/04/15 04:55:29;;;;;;;11.18;6.60;;;;;;;5.16;81.97;100910.28;4898841;29;20037;-73
2023/04/15 04:57:54;;;;;;;12.85;7.10;;;;;;;5.14;81.93;100909.41;4898676;29;20024;-73
2023/04/15 05:00:20;;;;;;;10.95;6.90;;;;;;;5.16;82.18;100917.28;4899038;29;20407;-73
2023/04/15 05:02:45;;;;;;;11.90;7.25;;;;;;;5.15;82.21;100912.91;4898457;29;20028;-73
2023/04/15 05:05:11;;;;;;;11.73;7.05;;;;;;;5.17;82.28;100919.06;4899083;29;20104;-73
2023/04/15 05:07:38;;;;;;;12.15;6.93;;;;;;;5.18;82.53;100913.78;4898259;29;20032;-73
2023/04/15 05:10:04;;;;;;;13.52;7.07;;;;;;;5.18;82.89;100920.78;4899259;29;20406;-73
2023/04/15 05:12:30;;;;;;;11.63;7.13;;;;;;;5.17;83.30;100921.66;4911634;29;20059;-73
2023/04/15 05:14:55;;;;;;;11.50;6.55;;;;;;;5.16;82.93;100928.66;4898788;29;20049;-73
2023/04/15 05:17:21;;;;;;;10.77;7.35;;;;;;;5.17;84.01;100925.16;4898600;29;20027;-73
2023/04/15 05:19:47;;;;;;;9.35;6.82;;;;;;;5.17;84.09;100943.53;4898657;29;20036;-73
2023/04/15 05:22:12;;;;;;;9.80;6.80;;;;;;;5.18;82.65;100947.91;4898512;29;20033;-73
2023/04/15 05:24:37;;;;;;;13.60;7.68;;;;;;;5.18;83.47;100958.41;4898501;29;20399;-73
2023/04/15 05:27:03;;;;;;;15.52;7.60;;;;;;;5.20;82.91;100949.69;4898365;29;20032;-73
2023/04/15 05:29:29;;;;;;;12.00;7.20;;;;;;;5.20;83.70;100953.19;4898363;29;20040;-73
2023/04/15 05:31:55;;;;;;;14.30;7.30;;;;;;;5.25;83.22;100958.44;4898214;29;20075;-73
2023/04/15 05:34:21;;;;;;;14.80;7.88;;;;;;;5.26;84.08;100966.28;4898370;29;20044;-73
2023/04/15 05:36:46;;;;;;;10.88;7.05;;;;;;;5.29;83.95;100966.31;4881519;29;20055;-73
2023/04/15 05:39:12;;;;;;;11.90;7.45;;;;;;;5.30;84.10;100962.81;4898364;29;20072;-74
2023/04/15 05:41:38;;;;;;;10.45;7.00;;;;;;;5.31;84.54;100968.94;4898156;29;20488;-73
2023/04/15 05:44:03;;;;;;;10.43;6.00;;;;;;;5.31;83.72;100974.19;4898245;29;20445;-73
2023/04/15 05:46:28;;;;;;;10.73;6.97;;;;;;;5.31;84.47;100979.44;4887040;29;20373;-73
2023/04/15 05:48:54;;;;;;;8.07;6.10;;;;;;;5.32;84.15;100984.72;4883998;29;20097;-73
2023/04/15 05:51:20;;;;;;;15.40;7.03;;;;;;;5.33;84.15;100989.06;4881013;29;20389;-73
2023/04/15 05:53:45;;;;;;;11.60;7.78;;;;;;;5.34;83.77;100993.47;4893820;29;20044;-73
2023/04/15 05:56:11;;;;;;;12.90;6.68;;;;;;;5.38;84.49;100994.34;4872812;29;20028;-73
2023/04/15 05:58:37;;;;;;;14.02;7.78;;;;;;;5.39;84.77;100996.13;4897754;29;20345;-73
2023/04/15 06:01:02;;;;;;;11.05;7.10;;;;;;;5.41;84.76;100998.72;4895035;29;20045;-74
2023/04/15 06:03:28;;;;;;;10.60;6.80;;;;;;;5.44;84.99;101003.97;4897516;29;20579;-73
2023/04/15 06:05:54;;;;;;;11.55;6.95;;;;;;;5.44;85.21;101007.50;4880932;29;20038;-74
2023/04/15 06:08:20;;;;;;;11.50;7.43;;;;;;;5.46;85.29;101007.47;4897659;29;20102;-73
2023/04/15 06:10:46;;;;;;;10.75;7.32;;;;;;;5.48;85.44;101018.88;4897729;29;20032;-73
2023/04/15 06:13:11;;;;;;;12.73;7.10;;;;;;;5.51;85.30;101016.25;4897586;29;20551;-73
2023/04/15 06:15:37;;;;;;;12.45;7.72;;;;;;;5.57;86.00;101029.41;4897723;29;20063;-74
2023/04/15 06:18:02;;;;;;;15.68;7.65;;;;;;;5.61;85.70;101023.25;4897130;29;20051;-74
2023/04/15 06:20:29;;;;;;;11.45;8.02;;;;;;;5.69;85.72;101031.19;4897375;29;20031;-74
2023/04/15 06:22:56;;;;;;;10.52;7.38;;;;;;;5.76;86.14;101033.81;4897396;29;20168;-73
2023/04/15 06:25:21;;;;;;;10.98;7.47;;;;;;;5.82;86.12;101039.06;4897496;29;20388;-74
2023/04/15 06:27:47;;;;;;;12.00;7.28;;;;;;;5.88;85.27;101043.44;4897114;29;20041;-74
2023/04/15 06:30:13;;;;;;;11.38;7.75;;;;;;;5.96;85.77;101046.09;4897447;29;20127;-67
2023/04/15 06:32:39;;;;;;;10.15;7.38;;;;;;;6.01;85.67;101041.75;4897252;29;20484;-74
2023/04/15 06:35:04;;;;;;;11.07;7.65;;;;;;;6.11;85.72;101046.13;4878294;29;20448;-74
2023/04/15 06:37:31;;;;;;;12.27;8.23;;;;;;;6.16;85.73;101054.88;4897075;29;20484;-67
2023/04/15 06:39:57;;;;;;;13.63;7.47;;;;;;;6.28;85.32;101063.63;4900153;29;20030;-74
2023/04/15 06:42:23;;;;;;;12.13;7.78;;;;;;;6.36;85.86;101061.88;4907647;29;20071;-73
2023/04/15 06:44:48;;;;;;;10.73;7.18;;;;;;;6.44;84.78;101062.75;4897560;29;20029;-74
2023/04/15 06:47:14;;;;;;;10.32;7.90;;;;;;;6.53;85.25;101067.09;4880190;29;20104;-74
2023/04/15 06:49:41;;;;;;;14.82;8.40;;;;;;;6.62;84.80;101064.47;4880580;29;20033;-67
2023/04/15 06:52:07;;;;;;;13.38;8.63;;;;;;;6.72;84.66;101081.09;4896978;29;20032;-67
2023/04/15 06:54:33;;;;;;;12.02;8.00;;;;;;;6.80;84.78;101082.88;4896990;29;20555;-73
2023/04/15 06:56:58;;;;;;;13.77;8.35;;;;;;;6.89;84.74;101084.56;4896913;29;20044;-74
2023/04/15 06:59:24;;;;;;;15.88;8.35;;;;;;;6.99;85.03;101090.69;4896834;29;20036;-67
2023/04/15 07:01:50;;;;;;;11.35;8.48;;;;;;;7.09;84.53;101089.78;4895281;29;20052;-74
2023/04/15 07:04:15;;;;;;;11.25;7.80;;;;;;;7.19;84.05;101096.75;4896807;29;20024;-74
2023/04/15 07:06:41;;;;;;;12.80;8.73;;;;;;;7.32;84.50;101102.88;4897083;29;20114;-67
2023/04/15 07:09:07;;;;;;;12.95;8.05;;;;;;;7.39;82.92;101096.66;4896590;29;20035;-74
2023/04/15 07:11:33;;;;;;;11.30;7.75;;;;;;;7.50;82.80;101096.63;4896970;29;20040;-67
2023/04/15 07:13:58;;;;;;;13.85;8.50;;;;;;;7.62;82.96;101108.88;4895666;29;20032;-67
2023/04/15 07:16:24;;;;;;;13.30;8.05;;;;;;;7.71;82.43;101117.59;4896563;29;20048;-67
2023/04/15 07:18:49;;;;;;;13.10;8.30;;;;;;;7.79;82.18;101111.41;4896562;29;20318;-67
2023/04/15 07:21:15;;;;;;;9.77;7.53;;;;;;;7.89;81.27;101106.06;4896637;29;20044;-67
2023/04/15 07:23:41;;;;;;;11.73;8.20;;;;;;;7.96;81.19;101118.34;4894774;29;20021;-67
2023/04/15 07:26:07;;;;;;;13.20;8.35;;;;;;;8.07;81.05;101117.38;4888381;29;20036;-67
2023/04/15 07:28:33;;;;;;;10.25;7.40;;;;;;;8.17;80.79;101119.94;4887195;29;20041;-67
2023/04/15 07:30:58;;;;;;;10.73;7.45;;;;;;;8.29;81.00;101128.66;4882709;29;20053;-67
2023/04/15 07:33:24;;;;;;;14.98;7.93;;;;;;;8.39;80.46;101141.78;4894571;29;20053;-67
2023/04/15 07:35:49;;;;;;;8.65;7.32;;;;;;;8.49;79.24;101145.22;4882114;29;20525;-68
2023/04/15 07:38:15;;;;;;;9.43;7.32;;;;;;;8.57;78.46;101139.88;4895048;29;20038;-67
2023/04/15 07:40:41;;;;;;;10.10;7.20;;;;;;;8.69;78.65;101142.41;4898388;29;20059;-67
2023/04/15 07:43:07;;;;;;;10.18;7.10;;;;;;;8.82;78.90;101149.31;4899869;29;20028;-67
2023/04/15 07:45:34;;;;;;;9.40;7.03;;;;;;;8.90;77.84;101151.00;4899915;29;20220;-67
2023/04/15 07:48:00;;;;;;;10.05;7.05;;;;;;;8.98;77.09;101151.81;4899908;29;20028;-74
2023/04/15 07:50:26;;;;;;;10.18;6.78;;;;;;;9.04;76.93;101155.25;4883788;29;20039;-74
2023/04/15 07:52:51;;;;;;;8.10;6.57;;;;;;;9.13;75.66;101158.72;4899760;29;20028;-74
2023/04/15 07:55:20;;;;;;;9.80;6.88;;;;;;;9.19;75.73;101158.63;4897888;29;20043;-74
2023/04/15 07:57:46;;;;;;;8.98;6.15;;;;;;;9.25;75.14;101158.56;4894505;29;20647;-74
2023/04/15 08:00:12;;;;;;;7.72;6.25;;;;;;;9.32;75.08;101164.66;4896919;29;20124;-74
2023/04/15 08:02:42;;;;;;;9.77;6.25;;;;;;;9.36;74.38;101166.38;4894654;29;20031;-74
2023/04/15 08:05:08;;;;;;;9.45;6.28;;;;;;;9.40;73.60;101171.59;4875061;29;20119;-75
2023/04/15 08:07:34;;;;;;;8.75;5.85;;;;;;;9.50;72.91;101179.44;4886118;29;20104;-74
2023/04/15 08:09:59;;;;;;;9.32;6.90;;;;;;;9.63;73.68;101181.03;4896523;29;20040;-75
2023/04/15 08:12:25;;;;;;;9.18;7.03;;;;;;;9.76;73.33;101185.25;4890193;29;20444;-76
2023/04/15 08:14:51;;;;;;;8.98;6.40;;;;;;;9.86;72.37;101181.59;4884490;29;20048;-75
2023/04/15 08:17:16;;;;;;;7.93;5.75;;;;;;;9.96;71.17;101182.34;4884511;29;20032;-76
2023/04/15 08:19:42;;;;;;;8.35;5.38;;;;;;;10.06;71.08;101194.56;4894320;29;20072;-76
2023/04/15 08:22:07;;;;;;;7.05;4.90;;;;;;;10.12;69.78;101190.94;4902920;29;20088;-76
2023/04/15 08:24:33;;;;;;;6.53;4.78;;;;;;;10.21;68.02;101198.78;4899166;29;20401;-76
2023/04/15 08:26:58;;;;;;;6.22;4.63;;;;;;;10.32;67.31;101209.22;4898878;29;20048;-75
2023/04/15 08:29:24;;;;;;;6.40;4.10;;;;;;;10.45;67.14;101200.19;4907482;29;20043;-75
2023/04/15 08:31:50;;;;;;;7.40;4.95;;;;;;;10.62;67.36;101205.22;4902582;29;20056;-75
2023/04/15 08:34:15;;;;;;;7.20;5.40;;;;;;;10.78;66.75;101203.22;4899732;29;20127;-75
2023/04/15 08:36:41;;;;;;;7.43;5.20;;;;;;;10.96;66.96;101208.16;4897657;29;20059;-75
2023/04/15 08:39:07;;;;;;;11.20;4.45;;;;;;;11.13;64.91;101220.25;4889470;29;20128;-75
2023/04/15 08:41:46;;;;;;;10.05;4.80;;;;;;;11.29;65.04;101223.50;4892707;29;20456;-75
2023/04/15 08:44:13;;;;;;;5.65;4.45;;;;;;;11.38;62.76;101229.50;4895965;29;20065;-76
2023/04/15 08:46:41;;;;;;;7.82;4.45;;;;;;;11.42;62.28;101235.59;4891027;29;20036;-75
2023/04/15 08:49:10;;;;;;;7.53;5.03;;;;;;;11.46;62.74;101232.00;4898748;29;20048;-76
2023/04/15 08:51:36;;;;;;;7.57;4.65;;;;;;;11.61;63.94;101237.00;4898680;29;20490;-76
2023/04/15 08:54:02;;;;;;;8.93;4.68;;;;;;;11.73;61.41;101246.50;4899159;29;20044;-76
2023/04/15 08:56:31;;;;;;;8.63;4.65;;;;;;;11.76;59.49;101249.09;4896835;29;20477;-75
2023/04/15 08:58:56;;;;;;;5.95;4.50;;;;;;;11.72;59.30;101258.03;4893595;29;20028;-75
2023/04/15 09:01:22;;;;;;;6.70;4.55;;;;;;;11.78;60.01;101259.69;4898016;29;20041;-75
2023/04/15 09:03:49;;;;;;;7.93;5.00;;;;;;;11.83;60.53;101261.31;4881851;29;20136;-75
2023/04/15 09:06:16;;;;;;;9.13;4.82;;;;;;;11.96;59.85;101261.97;4911992;29;20495;-75
2023/04/15 09:08:42;;;;;;;8.23;5.15;;;;;;;12.04;60.26;101268.00;4898701;29;20089;-75
2023/04/15 09:11:07;;;;;;;8.68;5.13;;;;;;;12.10;60.13;101271.44;4915598;29;20040;-75
2023/04/15 09:13:33;;;;;;;6.72;4.75;;;;;;;12.11;58.79;101267.88;4884199;29;20033;-76
2023/04/15 09:16:03;;;;;;;8.20;4.00;;;;;;;12.06;58.18;101281.25;4882376;29;20123;-76
2023/04/15 09:18:30;;;;;;;9.02;3.75;;;;;;;11.99;57.09;101284.91;4882222;29;20085;-74
2023/04/15 09:21:04;;;;;;;7.55;3.95;;;;;;;11.95;57.47;101288.56;4899019;29;20081;-75
2023/04/15 09:23:30;;;;;;;6.75;3.15;;;;;;;11.92;57.55;101297.47;4917609;29;20035;-74
2023/04/15 09:25:56;;;;;;;4.93;3.03;;;;;;;11.97;57.30;101306.22;4904694;29;20345;-75
2023/04/15 09:28:25;;;;;;;7.07;3.20;;;;;;;11.99;57.49;101299.09;4898752;29;20047;-74
2023/04/15 09:30:55;;;;;;;6.55;3.20;;;;;;;12.00;57.43;101308.78;4898588;29;20061;-74
2023/04/15 09:33:21;;;;;;;4.55;3.38;;;;;;;12.09;57.57;101309.50;4902734;29;20161;-74
2023/04/15 09:36:03;;;;;;;4.13;3.15;;;;;;;12.19;58.35;101309.28;4913025;29;20541;-74
2023/04/15 09:38:29;;;;;;;6.13;3.65;;;;;;;12.25;57.41;101321.56;4900324;29;20032;-74
2023/04/15 09:40:56;;;;;;;5.45;3.53;;;;;;;12.26;56.68;101318.88;4906795;29;20036;-74
2023/04/15 09:43:22;;;;;;;5.82;4.03;;;;;;;12.36;57.48;101314.22;4900997;29;20062;-74
2023/04/15 09:45:52;;;;;;;5.68;3.53;;;;;;;12.56;57.96;101321.78;4917236;29;20373;-74
2023/04/15 09:48:20;;;;;;;7.60;4.15;;;;;;;12.75;57.79;101324.00;4903938;29;20040;-74
2023/04/15 09:50:49;;;;;;;5.70;3.83;;;;;;;12.92;56.65;101324.47;4917223;29;20024;-75
2023/04/15 09:53:19;;;;;;;5.88;3.65;;;;;;;13.06;55.97;101324.16;4902529;29;20037;-74
2023/04/15 09:55:49;;;;;;;5.10;3.45;;;;;;;13.11;54.81;101320.47;4888194;29;20368;-75
2023/04/15 09:58:22;;;;;;;4.13;3.22;;;;;;;13.18;54.86;101328.28;4887355;29;20411;-74
2023/04/15 10:00:50;;;;;;;4.50;2.72;;;;;;;13.14;52.82;101332.81;4896909;29;20037;-74
2023/04/15 10:03:21;;;;;;;9.85;3.03;;;;;;;13.13;53.88;101333.75;4898301;29;20660;-75
2023/04/15 10:05:47;;;;;;;;;;;;;;;13.24;55.82;101330.81;4885052;29;20112;-74
2023/04/15 10:08:13;;;;;;;4.15;2.80;;;;;;;13.26;53.54;101332.50;4904097;29;19954;-74
2023/04/15 10:10:39;;;;;;;4.43;3.08;;;;;;;13.28;53.72;101332.50;4916772;29;20076;-74
2023/04/15 10:13:05;;;;;;;4.97;3.13;;;;;;;13.28;53.74;101337.84;4898583;29;20028;-74
2023/04/15 10:15:33;;;;;;;3.92;2.90;;;;;;;13.28;53.60;101348.47;4898043;29;20041;-75
2023/04/15 10:18:04;;;;;;;4.47;3.03;;;;;;;13.27;54.25;101344.91;4897286;29;20033;-74
2023/04/15 10:20:30;;;;;;;3.30;2.70;;;;;;;13.37;54.65;101336.72;4898003;29;20040;-74
2023/04/15 10:22:56;;;;;;;5.18;3.10;;;;;;;13.38;53.82;101335.78;4897591;29;20036;-74
2023/04/15 10:25:23;;;;;;;5.63;3.28;;;;;;;13.49;55.45;101339.91;4897800;29;20037;-75
2023/04/15 10:27:50;;;;;;;5.82;3.67;;;;;;;13.65;53.94;101339.50;4897539;29;20067;-74
2023/04/15 10:30:17;;;;;;;5.25;3.47;;;;;;;13.76;53.49;101343.63;4884757;29;20039;-74
2023/04/15 10:32:43;;;;;;;4.60;3.00;;;;;;;13.88;53.54;101329.13;4897530;29;20060;-74
2023/04/15 10:35:10;;;;;;;4.10;2.80;;;;;;;14.04;52.15;101342.00;4897590;29;20073;-75
2023/04/15 10:37:37;;;;;;;5.18;3.35;;;;;;;14.20;51.59;101346.84;4897672;29;20044;-74
2023/04/15 10:40:26;;;;;;;3.45;2.67;;;;;;;14.36;52.42;101349.94;4897350;29;20048;-75
2023/04/15 10:42:53;;;;;;;4.03;2.92;;;;;;;14.65;50.53;101358.03;4897544;29;20104;-75
2023/04/15 10:45:19;;;;;;;4.15;2.60;;;;;;;14.79;48.19;101361.16;4896013;29;20036;-75
2023/04/15 10:47:44;;;;;;;3.92;2.50;;;;;;;14.82;47.18;101364.56;4897315;29;20051;-74
2023/04/15 10:50:10;;;;;;;6.15;2.70;;;;;;;14.94;48.17;101352.66;4897364;29;20472;-75
2023/04/15 10:52:40;;;;;;;5.20;2.63;;;;;;;15.05;48.14;101361.16;4897336;29;20341;-74
2023/04/15 10:55:09;;;;;;;4.75;2.90;;;;;;;15.07;47.11;101361.13;4897218;29;20436;-74
2023/04/15 10:57:37;;;;;;;6.57;3.20;;;;;;;15.07;47.47;101362.94;4896924;29;20036;-74
2023/04/15 11:00:10;;;;;;;5.72;3.17;;;;;;;15.06;48.75;101364.75;4897048;29;20409;-75
2023/04/15 11:02:42;;;;;;;4.75;2.90;;;;;;;15.06;49.52;101364.75;4896470;29;20387;-75
2023/04/15 11:05:08;;;;;;;4.78;2.90;;;;;;;15.01;47.82;101370.22;4897233;29;20198;-74
2023/04/15 11:07:34;;;;;;;6.25;2.72;;;;;;;15.03;49.28;101364.81;4880069;29;20392;-74
2023/04/15 11:10:00;;;;;;;5.57;2.90;;;;;;;15.12;49.48;101372.53;4880205;29;20055;-74
2023/04/15 11:12:35;;;;;;;6.30;3.03;;;;;;;15.17;48.62;101380.38;4897193;29;20479;-74
2023/04/15 11:15:32;;;;;;;5.25;2.83;;;;;;;15.19;49.43;101379.41;4897234;29;20060;-75
2023/04/15 11:18:07;;;;;;;5.32;2.67;;;;;;;15.21;49.49;101369.56;4900827;29;20349;-75
2023/04/15 11:20:32;;;;;;;3.25;2.47;;;;;;;15.23;48.16;101362.41;4893782;29;20044;-74
2023/04/15 11:22:58;;;;;;;5.90;2.30;;;;;;;15.32;48.75;101365.66;4897167;29;20031;-75